Ludington, MI

2:47 PM EDT on March 31, 2015 (GMT -0400)
Mason County | | Change Station
CLOSE
Current Station
Airport
Location: Ludington,
Elevation: 646 ft
Nearby Weather Stations

Elev 646 ft 43.96 °N, 86.41 °W | Updated 13 minutes ago

Clear
Clear
43 °F
Feels Like 38 °F
N
8
Wind Variable Wind from West

Today
High -- | Low -- °F
--% Chance of Precip.
Yesterday
High -- | Low -- °F
Precip. -- in
7:29 AM 8:11 PM
Waxing Gibbous, 88% visible
Pressure 29.92 in
Visibility 10.0 miles
Clouds Clear
Windchill 38 °F
Dew Point 34 °F
Humidity 71%
Rainfall 0.79 in
Snow Depth Not available.
UV 7 out of 12
Pollen 1.10 out of 12
Air Quality Not available.
Flu Activity Not available.
METAR KLDM 311834Z AUTO 26007KT 10SM CLR 06/01 A2992 RMK AO2 T00610012

More Conditions Fewer Conditions

Pressure 29.92 in
Visibility 10.0 miles
Clouds Clear
Windchill 38 °F
Dew Point 34 °F
Humidity 71%
Rainfall 0.79 in
Snow Depth Not available.
UV 7 out of 12
Pollen 1.10 out of 12
Air Quality Not available.
Flu Activity Not available.
METAR KLDM 311834Z AUTO 26007KT 10SM CLR 06/01 A2992 RMK AO2 T00610012

More Conditions Fewer Conditions

10-Day Weather Forecast

Almanac

Astronomy

Mar. 31, 2015 Rise Set
Actual Time
Civil Twilight
Nautical Twilight
Astronomical Twilight
Moon
Length of Visible Light
Length of Day
Tomorrow will be .
, % of the Moon is Illuminated

Today's Extremes

State Highs State Lows

Community

WunderPhotos

Upload Photos

1,809,792 photos uploaded!

WunderBlogs® & News

Nearby

Air Quality

  Air Quality AQ Index Pollutant
Not available.

Snow Depth

Station Depth Elevation

Earthquake Activity

City Distance Mag. Time & Date
Minimum magnitude displayed is 2.5.

Coastal Water Temperatures

Place Temperature

Stations

Nearby Weather Stations

Station Location Temp. Windchill Dew Point Humidity Wind Precip. Elev Updated Type